createdAt,value
2019-05-12T00:01:38.799Z,6.30
2019-05-12T00:07:43.167Z,6.20
2019-05-12T00:13:47.901Z,6.10
2019-05-12T00:19:52.544Z,6.00
2019-05-12T00:25:58.727Z,5.90
2019-05-12T00:32:03.631Z,5.90
2019-05-12T00:38:09.327Z,5.90
2019-05-12T00:44:14.155Z,5.90
2019-05-12T00:50:18.806Z,5.80
2019-05-12T00:56:23.316Z,5.80
2019-05-12T01:02:28.678Z,5.80
2019-05-12T01:08:33.403Z,5.80
2019-05-12T01:14:38.399Z,5.70
2019-05-12T01:20:43.136Z,5.70
2019-05-12T01:26:47.740Z,5.70
2019-05-12T01:32:52.382Z,5.70
2019-05-12T01:38:59.155Z,5.60
2019-05-12T01:45:03.406Z,5.60
2019-05-12T01:51:08.358Z,5.50
2019-05-12T01:57:13.265Z,5.50
2019-05-12T02:03:17.998Z,5.40
2019-05-12T02:09:24.151Z,5.40
2019-05-12T02:15:28.703Z,5.40
2019-05-12T02:21:33.242Z,5.40
2019-05-12T02:27:38.365Z,5.40
2019-05-12T02:33:44.620Z,5.50
2019-05-12T02:39:49.339Z,5.50
2019-05-12T02:45:54.780Z,5.60
2019-05-12T02:51:59.718Z,5.60
2019-05-12T02:58:05.954Z,5.60
2019-05-12T03:04:14.524Z,5.60
2019-05-12T03:10:20.694Z,5.50
2019-05-12T03:16:25.847Z,5.50
2019-05-12T03:22:30.452Z,5.50
2019-05-12T03:28:35.787Z,5.50
2019-05-12T03:34:40.636Z,5.50
2019-05-12T03:40:45.483Z,5.50
2019-05-12T03:46:50.193Z,5.50
2019-05-12T03:52:56.620Z,5.60
2019-05-12T03:59:04.462Z,5.70
2019-05-12T04:05:08.180Z,5.70
2019-05-12T04:11:14.596Z,5.70
2019-05-12T04:17:19.200Z,5.80
2019-05-12T04:23:24.766Z,5.80
2019-05-12T04:29:29.666Z,5.80
2019-05-12T04:35:35.437Z,5.80
2019-05-12T04:41:40.499Z,5.70
2019-05-12T04:47:45.266Z,5.80
2019-05-12T04:53:49.895Z,5.80
2019-05-12T04:59:54.528Z,6.00
2019-05-12T05:05:59.064Z,6.40
2019-05-12T05:12:04.584Z,6.70
2019-05-12T05:18:09.531Z,6.80
2019-05-12T05:24:14.374Z,6.80
2019-05-12T05:30:19.203Z,7.20
2019-05-12T05:36:24.992Z,7.40
2019-05-12T05:42:32.775Z,7.60
2019-05-12T05:48:36.084Z,7.80
2019-05-12T05:54:40.640Z,7.90
2019-05-12T06:00:45.215Z,8.20
2019-05-12T06:06:53.720Z,8.40
2019-05-12T06:12:56.048Z,8.30
2019-05-12T06:19:00.622Z,8.70
2019-05-12T06:25:06.664Z,9.00
2019-05-12T06:31:13.576Z,9.30
2019-05-12T06:37:17.577Z,8.90
2019-05-12T06:43:24.262Z,8.90
2019-05-12T06:49:28.395Z,8.70
2019-05-12T06:55:36.837Z,8.80
2019-05-12T07:01:39.310Z,8.90
2019-05-12T07:07:45.997Z,9.00
2019-05-12T07:14:01.296Z,9.30
2019-05-12T07:19:58.224Z,9.40
2019-05-12T07:26:06.736Z,9.90
2019-05-12T07:32:16.522Z,10.40
2019-05-12T07:38:20.978Z,10.80
2019-05-12T07:44:25.270Z,10.30
2019-05-12T07:50:30.007Z,10.20
2019-05-12T07:56:35.771Z,9.90
2019-05-12T08:02:40.682Z,9.80
2019-05-12T08:08:50.967Z,10.00
2019-05-12T08:14:51.577Z,10.20
2019-05-12T08:20:56.239Z,10.10
2019-05-12T08:27:05.703Z,10.90
2019-05-12T08:33:09.821Z,11.20
2019-05-12T08:39:21.381Z,11.40
2019-05-12T08:45:27.369Z,12.30
2019-05-12T08:51:26.584Z,12.70
2019-05-12T08:57:34.839Z,12.20
2019-05-12T09:03:37.514Z,12.90
2019-05-12T09:09:43.951Z,13.70
2019-05-12T09:15:48.462Z,12.80
2019-05-12T09:21:54.260Z,12.50
2019-05-12T09:27:58.941Z,13.10
2019-05-12T09:34:11.626Z,12.90
2019-05-12T09:40:10.242Z,12.60
2019-05-12T09:46:14.793Z,12.60
2019-05-12T09:52:22.361Z,13.60
2019-05-12T09:58:27.830Z,13.80
2019-05-12T10:04:33.088Z,13.70
2019-05-12T10:10:40.183Z,14.50
2019-05-12T10:16:45.594Z,14.70
2019-05-12T10:22:50.485Z,14.40
2019-05-12T10:28:58.420Z,14.00
2019-05-12T10:35:01.422Z,14.50
2019-05-12T10:41:06.128Z,14.80
2019-05-12T10:47:10.750Z,15.60
2019-05-12T10:53:17.774Z,15.60
2019-05-12T10:59:32.232Z,16.00
2019-05-12T11:05:28.200Z,16.40
2019-05-12T11:11:41.730Z,16.50
2019-05-12T11:17:50.700Z,16.70
2019-05-12T11:23:55.280Z,17.30
2019-05-12T11:29:59.897Z,16.90
2019-05-12T11:36:04.546Z,17.20
2019-05-12T11:42:09.111Z,17.70
2019-05-12T11:48:14.445Z,17.10
2019-05-12T11:54:19.168Z,17.10
2019-05-12T12:00:25.469Z,17.10
2019-05-12T12:06:30.025Z,16.50
2019-05-12T12:12:34.722Z,18.20
2019-05-12T12:18:39.375Z,18.70
2019-05-12T12:24:44.000Z,19.00
2019-05-12T12:30:52.528Z,18.90
2019-05-12T12:36:54.862Z,20.50
2019-05-12T12:42:59.410Z,21.50
2019-05-12T12:49:06.378Z,21.10
2019-05-12T12:55:10.375Z,21.30
2019-05-12T13:01:21.935Z,21.20
2019-05-12T13:07:21.373Z,21.40
2019-05-12T13:13:25.940Z,20.80
2019-05-12T13:19:30.499Z,21.70
2019-05-12T13:25:38.898Z,20.30
2019-05-12T13:31:46.355Z,20.00
2019-05-12T13:37:50.268Z,19.60
2019-05-12T13:44:00.046Z,19.70
2019-05-12T13:50:04.078Z,21.40
2019-05-12T13:56:08.826Z,21.20
2019-05-12T14:02:21.851Z,20.40
2019-05-12T14:08:19.650Z,21.40
2019-05-12T14:14:24.288Z,21.60
2019-05-12T14:20:28.841Z,23.50
2019-05-12T14:26:33.533Z,23.90
2019-05-12T14:32:38.117Z,22.10
2019-05-12T14:38:42.664Z,21.70
2019-05-12T14:44:49.678Z,20.70
2019-05-12T14:50:53.677Z,20.10
2019-05-12T14:56:58.256Z,19.20
2019-05-12T15:03:05.463Z,17.90
2019-05-12T15:09:11.477Z,17.40
2019-05-12T15:15:20.456Z,16.00
2019-05-12T15:21:27.345Z,15.60
2019-05-12T15:27:41.212Z,16.10
2019-05-12T15:33:34.785Z,17.60
2019-05-12T15:39:39.331Z,19.40
2019-05-12T15:45:48.846Z,19.60
2019-05-12T15:51:54.158Z,17.50
2019-05-12T15:57:56.583Z,16.00
2019-05-12T16:04:03.516Z,15.80
2019-05-12T16:10:09.614Z,15.50
2019-05-12T16:16:14.412Z,15.10
2019-05-12T16:22:19.047Z,14.80
2019-05-12T16:28:26.594Z,14.60
2019-05-12T16:34:29.973Z,14.90
2019-05-12T16:40:39.275Z,14.30
2019-05-12T16:46:40.893Z,14.10
2019-05-12T16:52:45.718Z,14.00
2019-05-12T16:58:50.376Z,13.90
2019-05-12T17:04:54.944Z,14.30
2019-05-12T17:11:21.703Z,17.30
2019-05-12T17:17:05.971Z,17.10
2019-05-12T17:23:10.527Z,15.90
2019-05-12T17:29:15.185Z,15.10
2019-05-12T17:35:20.173Z,14.90
2019-05-12T17:41:26.171Z,16.40
2019-05-12T17:47:31.994Z,19.30
2019-05-12T17:53:37.821Z,20.90
2019-05-12T17:59:44.795Z,18.80
2019-05-12T18:05:49.824Z,18.50
2019-05-12T18:11:56.316Z,18.70
2019-05-12T18:18:00.770Z,19.10
2019-05-12T18:24:09.655Z,18.70
2019-05-12T18:30:16.633Z,17.80
2019-05-12T18:36:18.815Z,16.80
2019-05-12T18:42:24.598Z,15.70
2019-05-12T18:48:29.431Z,14.10
2019-05-12T18:54:34.556Z,13.00
2019-05-12T19:00:39.490Z,12.10
2019-05-12T19:06:44.225Z,11.60
2019-05-12T19:12:51.551Z,10.90
2019-05-12T19:18:55.698Z,10.60
2019-05-12T19:25:00.543Z,10.40
2019-05-12T19:31:09.856Z,10.20
2019-05-12T19:37:14.115Z,10.00
2019-05-12T19:43:17.815Z,9.80
2019-05-12T19:49:25.803Z,9.60
2019-05-12T19:55:28.799Z,9.60
2019-05-12T20:01:34.509Z,9.40
2019-05-12T20:07:39.220Z,9.40
2019-05-12T20:13:44.480Z,9.20
2019-05-12T20:19:49.205Z,9.20
2019-05-12T20:25:53.797Z,9.00
2019-05-12T20:31:58.390Z,9.00
2019-05-12T20:38:04.145Z,8.80
2019-05-12T20:44:09.813Z,8.70
2019-05-12T20:50:15.377Z,8.50
2019-05-12T20:56:21.961Z,8.40
2019-05-12T21:02:26.216Z,8.40
2019-05-12T21:08:30.764Z,8.20
2019-05-12T21:14:35.314Z,8.10
2019-05-12T21:20:39.928Z,8.00
2019-05-12T21:26:44.492Z,7.90
2019-05-12T21:32:56.527Z,7.80
2019-05-12T21:38:59.561Z,7.80
2019-05-12T21:45:04.270Z,7.60
2019-05-12T21:51:09.834Z,7.50
2019-05-12T21:57:14.140Z,7.40
2019-05-12T22:03:18.916Z,7.30
2019-05-12T22:09:24.071Z,7.20
2019-05-12T22:15:28.973Z,7.00
2019-05-12T22:21:35.755Z,6.90
2019-05-12T22:27:39.867Z,6.60
2019-05-12T22:33:49.740Z,6.40
2019-05-12T22:39:50.676Z,6.30
2019-05-12T22:45:55.309Z,6.10
2019-05-12T22:52:02.802Z,6.00
2019-05-12T22:58:10.880Z,6.00
2019-05-12T23:04:14.250Z,6.00
2019-05-12T23:10:19.060Z,6.00
2019-05-12T23:16:27.675Z,5.90
2019-05-12T23:22:35.224Z,5.80
2019-05-12T23:28:40.530Z,5.50
2019-05-12T23:34:45.079Z,5.30
2019-05-12T23:40:48.919Z,5.00
2019-05-12T23:46:53.895Z,4.90
2019-05-12T23:52:58.595Z,4.90
2019-05-12T23:59:04.496Z,4.80
